Time;durP1;ratioP1;P1;durP2;ratioP2;P2;SDS_P1;SDS_P2;PMS_P1;PMS_P2;Temp;Humidity;BMP_temperature;BMP_pressure;BME280_temperature;BME280_humidity;BME280_pressure;Samples;Min_cycle;Max_cycle;Signal;HPM_P1;HPM_P2
2023/05/19 00:01:42;;;;;;;;;;;;;;;14.68;98.16;99878.78;4395450;32;33519;-96
2023/05/19 00:04:52;;;;;;;;;;;;;;;14.79;95.48;99882.94;4367254;32;34566;-96
2023/05/19 00:08:04;;;;;;;;;;;;;;;14.85;95.24;99879.31;4378934;32;32934;-96
2023/05/19 00:10:58;;;;;;;;;;;;;;;14.64;95.23;99877.13;4390819;32;34038;-96
2023/05/19 00:17:41;;;;;;;;;;;;;;;14.77;93.32;99871.63;4390886;32;35740;-96
2023/05/19 00:21:39;;;;;;;;;;;;;;;14.68;93.26;99877.03;4390876;32;35957;-96
2023/05/19 00:24:49;;;;;;;;;;;;;;;14.36;94.16;99870.56;4377844;32;32142;-96
2023/05/19 00:28:36;;;;;;;;;;;;;;;14.29;93.98;99878.59;4384321;32;36496;-96
2023/05/19 00:32:01;;;;;;;;;;;;;;;14.25;92.49;99867.28;4358982;32;34513;-96
2023/05/19 00:35:36;;;;;;;;;;;;;;;14.79;85.97;99879.47;4667118;27;34742;-96
2023/05/19 00:38:53;;;;;;;;;;;;;;;14.30;86.53;99870.69;1153529;27;20263;31
2023/05/19 00:42:04;;;;;;;;;;;;;;;13.78;89.79;99864.56;4330285;32;32416;-96
2023/05/19 00:44:51;;;;;;;;;;;;;;;14.16;86.83;99867.47;4335292;33;35369;-96
2023/05/19 00:48:28;;;;;;;;;;;;;;;13.98;86.88;99869.50;4414217;26;34269;-96
2023/05/19 00:51:30;;;;;;;;;;;;;;;13.97;86.76;99872.13;4400192;32;30477;-96
2023/05/19 00:55:04;;;;;;;;;;;;;;;13.75;88.13;99864.63;4402566;32;32901;-96
2023/05/19 00:58:29;;;;;;;;;;;;;;;13.67;89.54;99869.09;4414443;32;34283;-96
2023/05/19 01:01:38;;;;;;;;;;;;;;;13.87;87.56;99865.31;4414699;32;34294;-96
2023/05/19 01:04:46;;;;;;;;;;;;;;;13.45;92.58;99876.41;4394148;32;31819;-96
2023/05/19 01:07:54;;;;;;;;;;;;;;;13.22;96.76;99871.44;4393092;32;33625;-96
2023/05/19 01:10:56;;;;;;;;;;;;;;;13.38;95.28;99867.78;4401541;32;34892;-96
2023/05/19 01:13:45;;;;;;;;;;;;;;;13.18;95.69;99854.94;4458622;27;33582;-96
2023/05/19 01:16:46;;;;;;;;;;;;;;;13.18;96.19;99859.28;4413076;27;32043;-96
2023/05/19 01:20:01;;;;;;;;;;;;;;;13.35;93.60;99865.19;4386646;32;34369;-96
2023/05/19 01:23:03;;;;;;;;;;;;;;;13.20;94.54;99860.12;4404044;27;34892;-96
2023/05/19 01:26:32;;;;;;;;;;;;;;;13.25;93.62;99864.44;4410453;32;33185;-96
2023/05/19 01:29:47;;;;;;;;;;;;;;;13.43;92.04;99871.19;4402826;27;31841;-96
2023/05/19 01:33:02;;;;;;;;;;;;;;;13.29;91.61;99873.09;4367363;32;32224;-96
2023/05/19 01:36:21;;;;;;;;;;;;;;;13.26;91.63;99873.13;4370219;32;36370;-96
2023/05/19 01:40:02;;;;;;;;;;;;;;;13.20;92.21;99875.81;4461000;27;20018;-96
2023/05/19 01:43:32;;;;;;;;;;;;;;;13.06;93.25;99878.63;4337658;27;32075;-96
2023/05/19 01:46:34;;;;;;;;;;;;;;;12.99;93.62;99869.97;4455317;27;32594;-96
2023/05/19 01:49:51;;;;;;;;;;;;;;;12.87;95.25;99865.75;4399204;27;33706;-96
2023/05/19 01:52:57;;;;;;;;;;;;;;;13.01;95.04;99862.97;4508261;27;19999;-96
2023/05/19 01:56:17;;;;;;;;;;;;;;;12.95;95.08;99868.28;4448887;27;20010;31
2023/05/19 02:02:53;;;;;;;;;;;;;;;13.15;94.29;99864.56;4641775;27;36028;-96
2023/05/19 02:06:22;;;;;;;;;;;;;;;13.47;90.56;99866.78;4391833;32;35886;-96
2023/05/19 02:10:01;;;;;;;;;;;;;;;13.37;92.38;99873.00;4618966;27;33849;31
2023/05/19 02:13:16;;;;;;;;;;;;;;;13.00;94.36;99863.00;4410776;27;33786;31
2023/05/19 02:16:26;;;;;;;;;;;;;;;12.85;96.08;99864.06;4310203;33;35222;-96
2023/05/19 02:19:40;;;;;;;;;;;;;;;12.49;100.00;99869.66;4313301;33;33360;-96
2023/05/19 02:22:46;;;;;;;;;;;;;;;12.99;98.01;99867.38;4326355;33;32452;-96
2023/05/19 02:25:50;;;;;;;;;;;;;;;12.98;94.81;99868.25;4424597;27;19985;-96
2023/05/19 02:29:06;;;;;;;;;;;;;;;12.76;97.89;99859.81;4417320;27;33572;-96
2023/05/19 02:32:25;;;;;;;;;;;;;;;12.49;100.00;99863.56;4391410;32;20003;-96
2023/05/19 02:35:42;;;;;;;;;;;;;;;12.52;100.00;99863.53;4391860;32;34855;-96
2023/05/19 02:39:07;;;;;;;;;;;;;;;12.55;100.00;99858.28;4392081;32;32258;-96
2023/05/19 02:42:19;;;;;;;;;;;;;;;12.67;100.00;99857.25;4392100;32;33629;-96
2023/05/19 02:45:28;;;;;;;;;;;;;;;12.51;100.00;99859.19;4383821;32;34462;-96
2023/05/19 02:48:46;;;;;;;;;;;;;;;12.53;100.00;99854.81;4352494;32;34316;-96
2023/05/19 02:51:49;;;;;;;;;;;;;;;12.50;100.00;99849.63;4589119;27;33678;31
2023/05/19 02:55:22;;;;;;;;;;;;;;;12.64;100.00;99857.31;4375120;32;34219;-96
2023/05/19 02:58:22;;;;;;;;;;;;;;;12.32;100.00;99859.38;4450767;27;34248;31
2023/05/19 03:01:32;;;;;;;;;;;;;;;12.46;100.00;99866.22;4373703;32;31579;-96
2023/05/19 03:05:11;;;;;;;;;;;;;;;12.40;100.00;99863.66;4534599;27;32684;-96
2023/05/19 03:08:20;;;;;;;;;;;;;;;12.27;100.00;99869.00;4423367;27;33586;-93
2023/05/19 03:11:34;;;;;;;;;;;;;;;12.42;100.00;99874.94;4360043;32;34827;-96
2023/05/19 03:14:47;;;;;;;;;;;;;;;12.88;98.56;99877.06;4346450;32;32007;-96
2023/05/19 03:17:35;;;;;;;;;;;;;;;12.47;99.46;99878.37;4351145;32;33036;-96
2023/05/19 03:20:56;;;;;;;;;;;;;;;13.00;97.13;99876.06;4340944;32;33766;-96
2023/05/19 03:23:43;;;;;;;;;;;;;;;12.99;96.63;99874.31;4410754;27;33989;-96
2023/05/19 03:26:44;;;;;;;;;;;;;;;12.92;95.88;99878.78;4396719;32;34288;-96
2023/05/19 03:30:24;;;;;;;;;;;;;;;12.66;97.97;99877.31;4424554;27;33839;-96
2023/05/19 03:33:34;;;;;;;;;;;;;;;12.76;96.90;99878.09;4376084;27;34441;-96
2023/05/19 03:36:49;;;;;;;;;;;;;;;13.06;95.36;99882.09;4400086;27;33109;-96
2023/05/19 03:40:14;;;;;;;;;;;;;;;13.06;94.36;99884.72;4376775;32;33108;-96
2023/05/19 03:43:15;;;;;;;;;;;;;;;13.01;94.41;99878.66;4364297;32;32610;-96
2023/05/19 03:46:38;;;;;;;;;;;;;;;12.54;100.00;99873.97;4357395;32;35353;-96
2023/05/19 03:50:05;;;;;;;;;;;;;;;12.46;100.00;99876.66;4355469;32;34891;-96
2023/05/19 03:53:10;;;;;;;;;;;;;;;12.80;99.37;99876.31;4363750;32;32251;-96
2023/05/19 03:56:22;;;;;;;;;;;;;;;12.75;98.92;99872.88;4614152;27;33950;-96
2023/05/19 04:00:00;;;;;;;;;;;;;;;12.44;100.00;99876.69;4473987;27;19990;-96
2023/05/19 04:03:05;;;;;;;;;;;;;;;12.65;100.00;99875.59;4354537;32;32924;-96
2023/05/19 04:06:20;;;;;;;;;;;;;;;12.76;100.00;99879.81;4471726;27;33458;-96
2023/05/19 04:09:37;;;;;;;;;;;;;;;13.33;96.94;99880.03;1262971;27;20235;-96
2023/05/19 04:12:44;;;;;;;;;;;;;;;13.13;98.09;99889.84;4329367;33;32340;-96
2023/05/19 04:16:06;;;;;;;;;;;;;;;12.76;100.00;99883.31;4325283;33;36200;-96
2023/05/19 04:19:19;;;;;;;;;;;;;;;12.97;100.00;99886.56;4324080;33;34395;-96
2023/05/19 04:22:21;;;;;;;;;;;;;;;12.91;100.00;99887.50;4323335;27;32287;-95
2023/05/19 04:25:48;;;;;;;;;;;;;;;13.03;100.00;99892.56;4513242;27;32416;-96
2023/05/19 04:29:03;;;;;;;;;;;;;;;13.27;100.00;99887.91;4397940;27;34909;-96
2023/05/19 04:32:30;;;;;;;;;;;;;;;13.19;100.00;99895.03;4376673;32;33103;-96
2023/05/19 04:36:20;;;;;;;;;;;;;;;13.41;100.00;99890.38;4413759;27;20022;-96
2023/05/19 04:39:24;;;;;;;;;;;;;;;13.95;97.52;99890.47;4392955;32;33975;-96
2023/05/19 04:42:48;;;;;;;;;;;;;;;13.94;99.62;99908.81;4393264;32;35830;-96
2023/05/19 04:46:11;;;;;;;;;;;;;;;13.89;99.24;99910.63;4375508;32;35241;-96
2023/05/19 04:49:23;;;;;;;;;;;;;;;14.22;97.31;99915.38;4553734;26;19994;-96
2023/05/19 04:52:53;;;;;;;;;;;;;;;14.57;95.63;99918.25;4406210;32;34159;-96
2023/05/19 04:56:24;;;;;;;;;;;;;;;15.20;92.87;99921.50;4423935;27;34820;-96
2023/05/19 04:59:30;;;;;;;;;;;;;;;15.37;91.93;99914.12;4551594;27;19998;-96
2023/05/19 05:03:15;;;;;;;;;;;;;;;15.41;90.87;99922.81;4408415;32;35327;-96
2023/05/19 05:06:27;;;;;;;;;;;;;;;15.49;91.34;99913.84;4361222;32;33646;-96
2023/05/19 05:09:28;;;;;;;;;;;;;;;16.09;88.14;99919.53;4401914;27;34860;-96
2023/05/19 05:12:37;;;;;;;;;;;;;;;16.10;87.27;99921.28;4412768;32;32564;-96
2023/05/19 05:15:40;;;;;;;;;;;;;;;16.11;87.16;99917.72;4528098;27;20002;-96
2023/05/19 05:18:58;;;;;;;;;;;;;;;15.83;91.95;99928.00;4403194;32;36104;-96
2023/05/19 05:22:25;;;;;;;;;;;;;;;16.07;88.46;99921.34;4482068;27;33466;-96
2023/05/19 05:25:23;;;;;;;;;;;;;;;15.97;87.39;99928.59;4396804;32;20010;-96
2023/05/19 05:28:58;;;;;;;;;;;;;;;15.91;88.69;99932.19;4484896;27;19994;-96
2023/05/19 05:32:13;;;;;;;;;;;;;;;15.86;88.33;99938.47;4382734;32;36470;-96
2023/05/19 05:35:08;;;;;;;;;;;;;;;16.10;85.17;99935.25;4395145;27;34277;-96
2023/05/19 05:37:51;;;;;;;;;;;;;;;15.87;85.34;99941.06;4364078;27;32293;-96
2023/05/19 05:40:22;;;;;;;;;;;;;;;16.25;85.50;99935.78;4366703;32;33232;-95
2023/05/19 05:43:06;;;;;;;;;;;;;;;16.11;85.55;99936.12;4349945;32;34307;-95
2023/05/19 05:45:38;;;;;;;;;;;;;;;16.75;82.29;99931.03;4353586;32;35310;-96
2023/05/19 05:48:06;;;;;;;;;;;;;;;16.52;84.20;99938.63;4377971;32;32970;-96
2023/05/19 05:50:59;;;;;;;;;;;;;;;16.77;82.16;99934.47;4385874;27;33034;-95
2023/05/19 05:56:57;;;;;;;;;;;;;;;17.82;80.54;99942.00;4421657;32;34823;-95
2023/05/19 05:59:28;;;;;;;;;;;;;;;17.87;80.95;99940.13;4397746;32;32109;-95
2023/05/19 06:02:29;;;;;;;;;;;;;;;18.37;77.53;99935.03;4482383;27;34220;-95
2023/05/19 06:05:34;;;;;;;;;;;;;;;18.68;75.56;99944.50;4418682;27;34325;-96
2023/05/19 06:08:44;;;;;;;;;;;;;;;18.96;75.62;99940.94;4383039;32;33525;-96
2023/05/19 06:11:24;;;;;;;;;;;;;;;18.67;74.59;99942.81;4419782;27;33646;-95
2023/05/19 06:14:38;;;;;;;;;;;;;;;18.54;75.44;99947.63;4451866;27;33291;-96
2023/05/19 06:17:54;;;;;;;;;;;;;;;18.94;73.66;99950.72;4389552;27;35221;-94
2023/05/19 06:21:26;;;;;;;;;;;;;;;18.57;73.88;99958.06;4382907;32;34789;-96
2023/05/19 06:23:58;;;;;;;;;;;;;;;18.82;73.05;99959.91;4392312;32;33349;-96
2023/05/19 06:27:15;;;;;;;;;;;;;;;19.12;71.72;99957.09;4381980;32;34551;-95
2023/05/19 06:30:36;;;;;;;;;;;;;;;18.90;72.99;99964.91;4379886;32;33923;-94
2023/05/19 06:34:16;;;;;;;;;;;;;;;18.94;73.49;99961.25;4392428;32;33844;-95
2023/05/19 06:36:50;;;;;;;;;;;;;;;18.87;72.92;99965.03;4469642;27;33169;-94
2023/05/19 06:39:55;;;;;;;;;;;;;;;18.91;72.76;99959.56;4456577;27;34102;-94
2023/05/19 06:42:48;;;;;;;;;;;;;;;19.50;70.34;99960.97;4370919;27;36106;-95
2023/05/19 06:45:25;;;;;;;;;;;;;;;19.30;72.85;99966.97;4384634;32;35341;-95
2023/05/19 06:47:57;;;;;;;;;;;;;;;19.51;70.13;99969.75;4474211;27;33711;-95
2023/05/19 06:50:44;;;;;;;;;;;;;;;19.92;68.85;99974.41;4470487;27;34383;-95
2023/05/19 06:53:35;;;;;;;;;;;;;;;19.37;69.82;99980.81;4376003;32;35617;-96
2023/05/19 06:56:06;;;;;;;;;;;;;;;20.36;63.59;99985.84;4387389;32;34563;-95
2023/05/19 06:58:38;;;;;;;;;;;;;;;19.88;67.63;99985.09;4400234;32;33313;-96
2023/05/19 07:01:07;;;;;;;;;;;;;;;20.63;61.69;99997.12;4398520;32;34305;-96
2023/05/19 07:03:41;;;;;;;;;;;;;;;20.04;63.71;99998.56;4368735;32;35210;-95
2023/05/19 07:06:12;;;;;;;;;;;;;;;19.09;70.09;99992.38;4367610;32;34847;-96
2023/05/19 07:08:40;;;;;;;;;;;;;;;19.14;74.38;99985.16;4379150;32;33552;-95
2023/05/19 07:11:14;;;;;;;;;;;;;;;18.96;73.73;99993.75;4366691;32;33343;-94
2023/05/19 07:13:43;;;;;;;;;;;;;;;19.50;69.66;99990.03;4395474;32;35231;-95
2023/05/19 07:16:11;;;;;;;;;;;;;;;19.59;71.24;99991.47;4382019;32;34277;-93
2023/05/19 07:18:39;;;;;;;;;;;;;;;20.76;63.58;99991.31;4380579;32;33176;-94
2023/05/19 07:21:09;;;;;;;;;;;;;;;20.73;60.70;99984.34;4380584;32;33444;-94
2023/05/19 07:23:44;;;;;;;;;;;;;;;19.81;68.47;99986.25;4367740;32;36121;-95
2023/05/19 07:26:14;;;;;;;;;;;;;;;19.49;71.79;99982.16;4366743;32;33582;-94
2023/05/19 07:28:45;;;;;;;;;;;;;;;19.67;72.59;99985.87;4369130;32;33109;-96
2023/05/19 07:31:17;;;;;;;;;;;;;;;19.78;69.89;99980.22;4367577;32;33600;-96
2023/05/19 07:33:51;;;;;;;;;;;;;;;20.31;69.20;99976.38;4355393;32;36290;-95
2023/05/19 07:36:21;;;;;;;;;;;;;;;20.22;68.13;99982.91;4388836;32;35416;-95
2023/05/19 07:38:52;;;;;;;;;;;;;;;19.87;72.04;99980.75;4360418;32;33214;-96
2023/05/19 07:41:21;;;;;;;;;;;;;;;19.74;70.32;99979.47;4363742;32;32794;-96
2023/05/19 07:43:52;;;;;;;;;;;;;;;19.72;72.46;99986.56;4376101;32;35693;-95
2023/05/19 07:46:21;;;;;;;;;;;;;;;20.57;66.99;99976.16;4369543;32;34534;-96
2023/05/19 07:48:50;;;;;;;;;;;;;;;20.30;65.25;99977.31;4369998;32;33318;-95
2023/05/19 07:51:19;;;;;;;;;;;;;;;20.89;66.13;99973.97;4371875;32;33534;-95
2023/05/19 07:53:48;;;;;;;;;;;;;;;20.99;65.82;99972.63;4383257;32;33973;-94
2023/05/19 07:56:16;;;;;;;;;;;;;;;20.51;67.50;99976.44;4384294;32;34581;-96
2023/05/19 08:02:04;;;;;;;;;;;;;;;21.24;65.88;99974.19;5132515;27;20011;-96
2023/05/19 08:05:05;;;;;;;;;;;;;;;21.39;62.04;99964.72;4418996;27;35044;-95
2023/05/19 08:07:34;;;;;;;;;;;;;;;21.53;60.64;99964.97;4370934;32;34133;-94
2023/05/19 08:10:07;;;;;;;;;;;;;;;21.69;61.44;99957.16;4366548;32;33475;-95
2023/05/19 08:12:35;;;;;;;;;;;;;;;22.33;59.39;99960.34;4370834;32;33264;-95
2023/05/19 08:15:05;;;;;;;;;;;;;;;22.18;62.39;99953.94;4356652;32;34096;-95
2023/05/19 08:17:34;;;;;;;;;;;;;;;22.48;58.27;99956.94;4358959;32;34044;-96
2023/05/19 08:20:04;;;;;;;;;;;;;;;22.93;57.04;99953.78;4360256;32;32073;-96
2023/05/19 08:22:39;;;;;;;;;;;;;;;22.86;57.57;99956.75;4375671;32;34984;-96
2023/05/19 08:25:21;;;;;;;;;;;;;;;21.39;64.85;99954.13;4368530;32;34914;-96
2023/05/19 08:27:50;;;;;;;;;;;;;;;21.49;65.29;99960.72;4360526;32;34409;-96
2023/05/19 08:30:23;;;;;;;;;;;;;;;21.66;64.73;99951.16;4360448;32;34626;-96
2023/05/19 08:33:20;;;;;;;;;;;;;;;21.81;67.23;99958.38;4351164;32;34624;-96
2023/05/19 08:35:57;;;;;;;;;;;;;;;21.24;65.53;99966.25;4376624;32;35233;-96
2023/05/19 08:38:25;;;;;;;;;;;;;;;21.83;65.27;99958.28;4349539;32;33127;-96
2023/05/19 08:40:56;;;;;;;;;;;;;;;22.04;65.28;99957.28;4364126;27;31860;-96
2023/05/19 08:43:32;;;;;;;;;;;;;;;23.28;55.63;99960.78;4362117;32;33013;-96
2023/05/19 08:46:37;;;;;;;;;;;;;;;22.61;64.88;99949.19;4386461;27;35289;-95
2023/05/19 08:49:35;;;;;;;;;;;;;;;23.70;60.27;99957.66;4427392;27;33173;-96
2023/05/19 08:52:09;;;;;;;;;;;;;;;24.98;59.36;99953.84;4362533;32;33640;-96
2023/05/19 08:54:45;;;;;;;;;;;;;;;24.82;54.49;99958.41;4373385;32;34359;-96
2023/05/19 08:57:35;;;;;;;;;;;;;;;23.79;57.20;99958.03;4358613;32;35485;-96
2023/05/19 09:00:14;;;;;;;;;;;;;;;23.07;55.08;99956.63;4367707;32;34541;-96
2023/05/19 09:02:42;;;;;;;;;;;;;;;23.60;54.04;99958.16;4370100;32;33508;-95
2023/05/19 09:05:38;;;;;;;;;;;;;;;23.25;56.66;99952.12;4350216;32;33919;-96
2023/05/19 09:08:21;;;;;;;;;;;;;;;22.92;57.29;99955.56;4372952;32;36097;-96
2023/05/19 09:10:53;;;;;;;;;;;;;;;23.93;59.02;99954.63;4362736;32;34490;-95
2023/05/19 09:13:44;;;;;;;;;;;;;;;24.71;55.67;99959.06;4392197;27;34061;-96
2023/05/19 09:16:31;;;;;;;;;;;;;;;24.17;55.00;99955.00;4397826;27;33076;-96
2023/05/19 09:19:56;;;;;;;;;;;;;;;24.10;56.72;99950.97;4662986;27;19976;-96
2023/05/19 09:23:14;;;;;;;;;;;;;;;25.39;50.87;99947.81;4343269;33;33900;-96
2023/05/19 09:26:07;;;;;;;;;;;;;;;25.15;49.96;99950.16;4342840;33;33373;-96
2023/05/19 09:30:07;;;;;;;;;;;;;;;25.41;52.31;99942.38;4327305;33;35286;-96
2023/05/19 09:32:56;;;;;;;;;;;;;;;25.60;52.58;99937.59;4345978;27;35434;-95
2023/05/19 09:35:26;;;;;;;;;;;;;;;24.94;49.89;99941.69;4340015;33;34815;-96
2023/05/19 09:38:18;;;;;;;;;;;;;;;25.13;51.99;99938.72;4331205;33;32174;-96
2023/05/19 09:41:29;;;;;;;;;;;;;;;25.45;50.66;99941.22;4389018;27;34209;-95
2023/05/19 09:44:44;;;;;;;;;;;;;;;24.77;55.21;99935.53;4330965;32;35731;-95
2023/05/19 09:47:24;;;;;;;;;;;;;;;26.20;47.37;99932.87;4330204;33;33241;-96
2023/05/19 09:49:59;;;;;;;;;;;;;;;25.12;51.10;99935.22;4331637;32;34606;-96
2023/05/19 09:53:07;;;;;;;;;;;;;;;24.65;54.35;99924.78;4365128;32;32572;-96
2023/05/19 09:55:41;;;;;;;;;;;;;;;24.97;55.77;99922.81;4369790;32;36905;-96
2023/05/19 09:58:17;;;;;;;;;;;;;;;24.64;55.49;99910.63;4345257;32;33525;-95
2023/05/19 10:00:47;;;;;;;;;;;;;;;25.40;52.97;99906.88;4370627;32;33559;-96
2023/05/19 10:03:23;;;;;;;;;;;;;;;25.28;48.37;99907.66;4356619;32;33295;-96
2023/05/19 10:05:57;;;;;;;;;;;;;;;25.89;52.73;99903.72;4370376;32;35016;-96
2023/05/19 10:08:26;;;;;;;;;;;;;;;25.49;50.85;99902.75;4369633;32;33880;-95
2023/05/19 10:10:54;;;;;;;;;;;;;;;24.69;54.74;99905.88;4370039;32;34101;-94
2023/05/19 10:13:24;;;;;;;;;;;;;;;23.94;58.69;99915.56;4370017;32;34174;-95
2023/05/19 10:15:58;;;;;;;;;;;;;;;24.88;53.55;99905.59;4438032;27;35177;-96
2023/05/19 10:18:33;;;;;;;;;;;;;;;24.84;49.65;99903.22;4361578;32;34673;-95
2023/05/19 10:21:08;;;;;;;;;;;;;;;25.16;51.81;99903.91;4377874;27;34245;-96
2023/05/19 10:23:42;;;;;;;;;;;;;;;24.90;49.53;99897.50;4358249;32;32685;-96
2023/05/19 10:26:13;;;;;;;;;;;;;;;25.00;52.73;99893.34;4409347;27;34966;-96
2023/05/19 10:28:43;;;;;;;;;;;;;;;26.20;47.90;99893.69;4397104;27;35619;-96
2023/05/19 10:31:27;;;;;;;;;;;;;;;26.45;48.69;99892.03;4359685;32;33404;-96
2023/05/19 10:34:13;;;;;;;;;;;;;;;26.35;50.54;99888.28;4372404;32;34238;-96
2023/05/19 10:36:48;;;;;;;;;;;;;;;25.99;49.95;99884.44;4384135;32;35276;-95
2023/05/19 10:39:18;;;;;;;;;;;;;;;25.11;49.62;99885.53;4370142;32;35214;-96
2023/05/19 10:41:50;;;;;;;;;;;;;;;24.97;51.88;99883.75;4359340;32;31752;-96
2023/05/19 10:44:27;;;;;;;;;;;;;;;24.73;57.55;99883.44;4357490;32;32746;-95
2023/05/19 10:47:07;;;;;;;;;;;;;;;25.70;54.24;99882.72;4369167;32;35577;-95
2023/05/19 10:49:35;;;;;;;;;;;;;;;25.44;51.87;99875.53;4381292;32;35426;-96
2023/05/19 10:52:03;;;;;;;;;;;;;;;26.02;50.81;99870.91;4355276;32;31810;-95
2023/05/19 10:54:42;;;;;;;;;;;;;;;25.93;48.90;99875.00;4368322;32;33667;-96
2023/05/19 10:57:16;;;;;;;;;;;;;;;25.62;49.70;99873.50;4369312;32;34120;-95
2023/05/19 10:59:44;;;;;;;;;;;;;;;25.71;50.71;99871.09;4366606;32;32478;-96
2023/05/19 11:02:54;;;;;;;;;;;;;;;24.46;55.83;99863.75;4382643;32;34190;-95
2023/05/19 11:05:33;;;;;;;;;;;;;;;24.22;52.85;99869.59;4306932;33;33980;-95
2023/05/19 11:08:04;;;;;;;;;;;;;;;24.49;54.39;99860.91;4340911;32;33966;-95
2023/05/19 11:10:34;;;;;;;;;;;;;;;23.85;56.00;99866.41;4369127;32;34675;-95
2023/05/19 11:13:03;;;;;;;;;;;;;;;24.74;54.75;99855.84;4381133;32;33586;-96
2023/05/19 11:15:34;;;;;;;;;;;;;;;23.08;61.72;99857.38;4355836;32;33788;-95
2023/05/19 11:18:03;;;;;;;;;;;;;;;23.73;54.82;99861.75;4368309;32;35114;-95
2023/05/19 11:20:33;;;;;;;;;;;;;;;23.56;55.79;99860.94;4369244;32;33925;-95
2023/05/19 11:23:02;;;;;;;;;;;;;;;23.11;57.90;99859.88;4374674;32;33125;-96
2023/05/19 11:25:54;;;;;;;;;;;;;;;23.39;56.30;99859.22;4388386;32;33817;-95
2023/05/19 11:28:25;;;;;;;;;;;;;;;23.05;59.55;99854.91;4362442;32;33936;-96
2023/05/19 11:30:59;;;;;;;;;;;;;;;24.32;55.05;99849.47;4372780;32;34724;-95
2023/05/19 11:33:28;;;;;;;;;;;;;;;24.15;55.85;99846.97;4369586;32;34112;-96
2023/05/19 11:35:59;;;;;;;;;;;;;;;24.46;53.75;99850.44;4382668;32;34158;-96
2023/05/19 11:38:28;;;;;;;;;;;;;;;24.41;55.76;99851.59;4343607;27;1000983;-95
2023/05/19 11:40:59;;;;;;;;;;;;;;;24.48;51.60;99859.19;4369169;32;33246;-95
2023/05/19 11:43:27;;;;;;;;;;;;;;;24.02;51.88;99853.00;4368113;32;32518;-95
2023/05/19 11:45:56;;;;;;;;;;;;;;;23.92;54.37;99862.44;4368832;32;35030;-96
2023/05/19 11:48:25;;;;;;;;;;;;;;;23.70;54.01;99861.94;4369638;32;35200;-95
2023/05/19 11:50:58;;;;;;;;;;;;;;;23.70;51.05;99861.94;4343227;33;33864;-96
2023/05/19 11:53:30;;;;;;;;;;;;;;;23.74;54.09;99855.50;4352712;33;33560;-96
2023/05/19 11:56:16;;;;;;;;;;;;;;;23.58;51.09;99860.84;4362503;32;35326;-96
2023/05/19 11:58:44;;;;;;;;;;;;;;;24.76;53.69;99863.72;4352693;32;34921;-95
2023/05/19 12:01:15;;;;;;;;;;;;;;;25.87;52.08;99854.94;4366626;32;33803;-96
2023/05/19 12:03:48;;;;;;;;;;;;;;;24.69;49.22;99852.62;4355994;32;33887;-96
2023/05/19 12:06:27;;;;;;;;;;;;;;;24.00;54.49;99854.91;4368695;32;32757;-96
2023/05/19 12:08:58;;;;;;;;;;;;;;;23.31;55.69;99845.47;4368637;32;35406;-96
2023/05/19 12:11:33;;;;;;;;;;;;;;;23.60;48.45;99851.81;4369186;32;33475;-95
2023/05/19 12:14:08;;;;;;;;;;;;;;;24.90;50.75;99846.91;4356114;32;32400;-95
2023/05/19 12:16:36;;;;;;;;;;;;;;;25.08;49.10;99836.91;4368461;32;34108;-96
2023/05/19 12:19:28;;;;;;;;;;;;;;;25.45;52.31;99839.91;4360115;32;34595;-96
2023/05/19 12:22:04;;;;;;;;;;;;;;;25.80;51.30;99832.28;4347291;32;33078;-96
2023/05/19 12:24:35;;;;;;;;;;;;;;;26.61;42.62;99835.75;4359568;32;32316;-96
2023/05/19 12:27:48;;;;;;;;;;;;;;;25.40;45.37;99834.88;4385463;32;34108;-95
2023/05/19 12:30:30;;;;;;;;;;;;;;;24.81;49.49;99823.50;4371581;32;36406;-96
2023/05/19 12:33:15;;;;;;;;;;;;;;;25.42;45.79;99824.97;4359317;32;35411;-96
2023/05/19 12:36:12;;;;;;;;;;;;;;;24.55;46.74;99816.19;4364420;32;33161;-96
2023/05/19 12:38:43;;;;;;;;;;;;;;;24.29;49.49;99804.41;4356882;32;35284;-96
2023/05/19 12:41:23;;;;;;;;;;;;;;;25.26;43.94;99801.13;4358626;32;35656;-96
2023/05/19 12:44:14;;;;;;;;;;;;;;;25.81;44.32;99799.31;4384119;27;33842;-96
2023/05/19 12:46:50;;;;;;;;;;;;;;;24.89;47.44;99794.59;4356184;32;32378;-95
2023/05/19 12:49:20;;;;;;;;;;;;;;;25.12;47.71;99791.31;4344157;33;33808;-96
2023/05/19 12:52:21;;;;;;;;;;;;;;;25.40;44.49;99786.06;4348023;33;35396;-96
2023/05/19 12:55:19;;;;;;;;;;;;;;;25.74;42.18;99793.50;4349711;33;34279;-96
2023/05/19 12:57:56;;;;;;;;;;;;;;;26.33;40.01;99786.94;4341356;33;33494;-96
2023/05/19 13:00:31;;;;;;;;;;;;;;;25.98;39.97;99792.00;4338537;33;34985;-96
2023/05/19 13:03:01;;;;;;;;;;;;;;;25.47;43.00;99785.53;4324392;33;35237;-96
2023/05/19 13:05:36;;;;;;;;;;;;;;;26.69;44.64;99795.19;4345862;33;33540;-96
2023/05/19 13:08:13;;;;;;;;;;;;;;;26.03;42.35;99789.88;4338840;33;32025;-96
2023/05/19 13:10:45;;;;;;;;;;;;;;;26.19;40.01;99787.87;4325828;33;32850;-96
2023/05/19 13:13:29;;;;;;;;;;;;;;;26.69;38.82;99787.19;4327152;33;35041;-96
2023/05/19 13:16:06;;;;;;;;;;;;;;;26.02;40.99;99785.50;4338759;33;34734;-96
2023/05/19 13:18:58;;;;;;;;;;;;;;;26.74;39.98;99780.53;4337161;33;32315;-96
2023/05/19 13:21:31;;;;;;;;;;;;;;;26.10;40.80;99780.50;4321268;33;34128;-96
2023/05/19 13:24:02;;;;;;;;;;;;;;;26.21;40.76;99780.63;4334470;33;35024;-96
2023/05/19 13:26:35;;;;;;;;;;;;;;;26.24;41.37;99769.75;4337474;33;35351;-96
2023/05/19 13:29:04;;;;;;;;;;;;;;;26.12;42.02;99770.59;4348911;33;31993;-95
2023/05/19 13:31:32;;;;;;;;;;;;;;;25.74;42.17;99764.16;4361785;32;34113;-96
2023/05/19 13:34:01;;;;;;;;;;;;;;;25.97;41.76;99760.94;4337705;33;34210;-96
2023/05/19 13:36:33;;;;;;;;;;;;;;;25.72;44.52;99749.25;4339379;33;33384;-96
2023/05/19 13:39:22;;;;;;;;;;;;;;;26.69;39.76;99757.78;4339214;33;34619;-96
2023/05/19 13:41:53;;;;;;;;;;;;;;;27.06;39.88;99761.34;4342921;33;33988;-96
2023/05/19 13:44:32;;;;;;;;;;;;;;;26.65;40.65;99763.34;4343400;33;35528;-96
2023/05/19 13:47:59;;;;;;;;;;;;;;;26.62;41.23;99752.88;4343162;33;34693;-96
2023/05/19 13:50:53;;;;;;;;;;;;;;;25.84;43.57;99753.75;4323164;33;34609;-96
2023/05/19 13:53:40;;;;;;;;;;;;;;;25.44;42.39;99752.88;4327939;33;34334;-96
2023/05/19 13:56:19;;;;;;;;;;;;;;;26.20;42.08;99744.19;4325822;33;34033;-96
2023/05/19 13:58:50;;;;;;;;;;;;;;;25.64;48.98;99748.87;4311431;33;34028;-96
2023/05/19 14:01:19;;;;;;;;;;;;;;;25.21;47.05;99743.72;4332453;33;33207;-95
2023/05/19 14:03:48;;;;;;;;;;;;;;;25.73;42.87;99749.13;4323251;33;34297;-96
2023/05/19 14:06:17;;;;;;;;;;;;;;;25.59;44.39;99740.34;4321955;33;35861;-96
2023/05/19 14:08:46;;;;;;;;;;;;;;;25.64;42.05;99738.22;4335887;33;35369;-96
2023/05/19 14:11:21;;;;;;;;;;;;;;;24.70;46.19;99736.28;4333944;33;32666;-96
2023/05/19 14:13:49;;;;;;;;;;;;;;;24.41;46.59;99739.78;4322461;33;33170;-95
2023/05/19 14:16:21;;;;;;;;;;;;;;;24.06;49.46;99741.94;4334168;33;36034;-96
2023/05/19 14:18:51;;;;;;;;;;;;;;;24.68;45.25;99732.88;4336734;33;34731;-96
2023/05/19 14:21:19;;;;;;;;;;;;;;;24.75;46.67;99735.03;4336879;33;34153;-95
2023/05/19 14:23:47;;;;;;;;;;;;;;;24.34;46.31;99735.78;4336513;33;34149;-95
2023/05/19 14:26:15;;;;;;;;;;;;;;;23.98;49.20;99745.06;4338164;33;35131;-96
2023/05/19 14:28:44;;;;;;;;;;;;;;;24.00;50.90;99736.97;4336830;33;34605;-96
2023/05/19 14:31:13;;;;;;;;;;;;;;;24.69;46.30;99735.44;4333117;33;32444;-96
2023/05/19 14:33:41;;;;;;;;;;;;;;;24.48;45.71;99736.72;4347678;33;32821;-96
2023/05/19 14:36:09;;;;;;;;;;;;;;;23.84;47.85;99729.06;4337814;33;35904;-96
2023/05/19 14:38:37;;;;;;;;;;;;;;;24.06;50.23;99733.13;4333399;33;35328;-96
2023/05/19 14:41:06;;;;;;;;;;;;;;;23.47;51.74;99731.19;4331816;33;33111;-96
2023/05/19 14:43:34;;;;;;;;;;;;;;;23.58;51.06;99731.44;4337509;33;34372;-96
2023/05/19 14:46:04;;;;;;;;;;;;;;;24.27;46.49;99734.47;4336343;33;36018;-96
2023/05/19 14:48:32;;;;;;;;;;;;;;;24.37;46.50;99732.06;4336218;33;33367;-96
2023/05/19 14:51:00;;;;;;;;;;;;;;;24.01;45.74;99730.72;4332824;33;32376;-96
2023/05/19 14:53:29;;;;;;;;;;;;;;;23.96;46.58;99733.63;4332111;33;33377;-96
2023/05/19 14:55:57;;;;;;;;;;;;;;;23.62;49.81;99727.63;4315146;33;35789;-96
2023/05/19 14:58:26;;;;;;;;;;;;;;;23.43;53.50;99729.66;4321542;33;34404;-96
2023/05/19 15:00:57;;;;;;;;;;;;;;;23.60;49.22;99728.69;4333659;33;33668;-96